Terminal Aerodrome Forecast
Issued by NWS Blacksburg, VA

Current Version | Previous Version | Text Only | Print | Product List | Glossary Off
Versions: 1 2 3 4 5 6 7 8 9 10 11 12 13 14 15 16 17 18 19 20 21 22

000
FTUS41 KRNK 141730
TAFBLF
TAF
KBLF 141730Z 1418/1518 16004KT P6SM SCT020 BKN100
     FM142200 15004KT P6SM VCSH OVC035
     FM150000 14004KT P6SM OVC040
      TEMPO 1500/1503 2SM SHRA OVC025
     FM150300 VRB03KT P6SM VCSH OVC045
     FM150600 VRB03KT P6SM OVC045
     FM151200 00000KT 2SM BR OVC008
     FM151400 00000KT P6SM BKN010=

USA.gov is the U.S. government's official web portal to all federal, state and local government web resources and services.